sensor_id;sensor_type;location;lat;lon;timestamp;temperature;humidity
15111;DHT22;7656;51.954;7.998;2023-04-25T00:00:54;8.90;99.90
15111;DHT22;7656;51.954;7.998;2023-04-25T00:05:15;8.90;99.90
15111;DHT22;7656;51.954;7.998;2023-04-25T00:09:37;9.00;99.90
15111;DHT22;7656;51.954;7.998;2023-04-25T00:13:58;8.90;99.90
15111;DHT22;7656;51.954;7.998;2023-04-25T00:18:22;8.90;99.90
15111;DHT22;7656;51.954;7.998;2023-04-25T00:22:43;9.00;99.90
15111;DHT22;7656;51.954;7.998;2023-04-25T00:27:04;9.00;99.90
15111;DHT22;7656;51.954;7.998;2023-04-25T00:31:25;9.00;99.90
15111;DHT22;7656;51.954;7.998;2023-04-25T00:35:46;8.70;99.90
15111;DHT22;7656;51.954;7.998;2023-04-25T00:40:08;8.80;99.90
15111;DHT22;7656;51.954;7.998;2023-04-25T00:44:30;9.00;99.90
15111;DHT22;7656;51.954;7.998;2023-04-25T00:48:52;9.10;99.90
15111;DHT22;7656;51.954;7.998;2023-04-25T00:53:14;8.90;99.90
15111;DHT22;7656;51.954;7.998;2023-04-25T00:57:36;9.00;99.90
15111;DHT22;7656;51.954;7.998;2023-04-25T01:01:58;9.00;99.90
15111;DHT22;7656;51.954;7.998;2023-04-25T01:06:19;9.00;99.90
15111;DHT22;7656;51.954;7.998;2023-04-25T01:10:40;8.90;99.90
15111;DHT22;7656;51.954;7.998;2023-04-25T01:15:03;8.70;99.90
15111;DHT22;7656;51.954;7.998;2023-04-25T01:19:25;8.70;99.90
15111;DHT22;7656;51.954;7.998;2023-04-25T01:23:47;8.80;99.90
15111;DHT22;7656;51.954;7.998;2023-04-25T01:28:08;8.80;99.90
15111;DHT22;7656;51.954;7.998;2023-04-25T01:32:30;9.00;99.90
15111;DHT22;7656;51.954;7.998;2023-04-25T01:37:00;9.00;99.90
15111;DHT22;7656;51.954;7.998;2023-04-25T01:41:23;8.60;99.90
15111;DHT22;7656;51.954;7.998;2023-04-25T01:45:44;8.70;99.90
15111;DHT22;7656;51.954;7.998;2023-04-25T01:50:08;8.90;99.90
15111;DHT22;7656;51.954;7.998;2023-04-25T01:54:31;9.00;99.90
15111;DHT22;7656;51.954;7.998;2023-04-25T01:58:53;8.90;99.90
15111;DHT22;7656;51.954;7.998;2023-04-25T02:03:15;9.00;99.90
15111;DHT22;7656;51.954;7.998;2023-04-25T02:07:36;9.00;99.90
15111;DHT22;7656;51.954;7.998;2023-04-25T02:11:58;9.00;99.90
15111;DHT22;7656;51.954;7.998;2023-04-25T02:16:28;8.70;99.90
15111;DHT22;7656;51.954;7.998;2023-04-25T02:20:51;8.30;99.90
15111;DHT22;7656;51.954;7.998;2023-04-25T02:25:12;8.30;99.90
15111;DHT22;7656;51.954;7.998;2023-04-25T02:29:35;8.30;99.90
15111;DHT22;7656;51.954;7.998;2023-04-25T02:33:56;8.40;99.90
15111;DHT22;7656;51.954;7.998;2023-04-25T02:38:17;8.40;99.90
15111;DHT22;7656;51.954;7.998;2023-04-25T02:42:38;8.30;99.90
15111;DHT22;7656;51.954;7.998;2023-04-25T02:46:59;8.30;99.90
15111;DHT22;7656;51.954;7.998;2023-04-25T02:51:20;8.10;99.90
15111;DHT22;7656;51.954;7.998;2023-04-25T02:55:41;8.30;99.90
15111;DHT22;7656;51.954;7.998;2023-04-25T03:00:03;8.20;99.90
15111;DHT22;7656;51.954;7.998;2023-04-25T03:04:26;8.30;99.90
15111;DHT22;7656;51.954;7.998;2023-04-25T03:08:47;8.30;99.90
15111;DHT22;7656;51.954;7.998;2023-04-25T03:13:09;8.10;99.90
15111;DHT22;7656;51.954;7.998;2023-04-25T03:17:31;7.80;99.90
15111;DHT22;7656;51.954;7.998;2023-04-25T03:21:53;8.00;99.90
15111;DHT22;7656;51.954;7.998;2023-04-25T03:26:14;7.90;99.90
15111;DHT22;7656;51.954;7.998;2023-04-25T03:30:36;7.80;99.90
15111;DHT22;7656;51.954;7.998;2023-04-25T03:34:57;7.60;99.90
15111;DHT22;7656;51.954;7.998;2023-04-25T03:39:21;7.40;99.90
15111;DHT22;7656;51.954;7.998;2023-04-25T03:43:45;7.60;99.90
15111;DHT22;7656;51.954;7.998;2023-04-25T03:48:08;7.80;99.90
15111;DHT22;7656;51.954;7.998;2023-04-25T03:52:29;7.60;99.90
15111;DHT22;7656;51.954;7.998;2023-04-25T03:56:50;7.70;99.90
15111;DHT22;7656;51.954;7.998;2023-04-25T04:01:15;7.80;99.90
15111;DHT22;7656;51.954;7.998;2023-04-25T04:05:37;7.90;99.90
15111;DHT22;7656;51.954;7.998;2023-04-25T04:10:01;7.80;99.90
15111;DHT22;7656;51.954;7.998;2023-04-25T04:14:30;7.90;99.90
15111;DHT22;7656;51.954;7.998;2023-04-25T04:18:51;7.90;99.90
15111;DHT22;7656;51.954;7.998;2023-04-25T04:23:12;7.90;99.90
15111;DHT22;7656;51.954;7.998;2023-04-25T04:27:33;7.90;99.90
15111;DHT22;7656;51.954;7.998;2023-04-25T04:32:18;7.90;99.90
15111;DHT22;7656;51.954;7.998;2023-04-25T04:36:40;8.10;99.90
15111;DHT22;7656;51.954;7.998;2023-04-25T04:41:02;8.10;99.90
15111;DHT22;7656;51.954;7.998;2023-04-25T04:45:31;8.00;99.90
15111;DHT22;7656;51.954;7.998;2023-04-25T04:50:08;7.80;99.90
15111;DHT22;7656;51.954;7.998;2023-04-25T04:54:56;7.60;99.90
15111;DHT22;7656;51.954;7.998;2023-04-25T04:59:28;7.70;99.90
15111;DHT22;7656;51.954;7.998;2023-04-25T05:04:12;7.80;99.90
15111;DHT22;7656;51.954;7.998;2023-04-25T05:09:02;7.90;99.90
15111;DHT22;7656;51.954;7.998;2023-04-25T05:13:43;7.90;99.90
15111;DHT22;7656;51.954;7.998;2023-04-25T05:18:27;8.00;99.90
15111;DHT22;7656;51.954;7.998;2023-04-25T05:23:01;8.10;99.90
15111;DHT22;7656;51.954;7.998;2023-04-25T05:27:46;8.20;99.90
15111;DHT22;7656;51.954;7.998;2023-04-25T05:32:34;8.40;99.90
15111;DHT22;7656;51.954;7.998;2023-04-25T05:36:56;8.20;99.90
15111;DHT22;7656;51.954;7.998;2023-04-25T05:41:17;8.20;99.90
15111;DHT22;7656;51.954;7.998;2023-04-25T05:46:11;8.20;99.90
15111;DHT22;7656;51.954;7.998;2023-04-25T05:50:58;8.30;99.90
15111;DHT22;7656;51.954;7.998;2023-04-25T05:55:45;8.40;99.90
15111;DHT22;7656;51.954;7.998;2023-04-25T06:00:25;8.40;99.90
15111;DHT22;7656;51.954;7.998;2023-04-25T06:04:50;8.50;99.90
15111;DHT22;7656;51.954;7.998;2023-04-25T06:09:12;8.20;99.90
15111;DHT22;7656;51.954;7.998;2023-04-25T06:13:33;8.30;99.90
15111;DHT22;7656;51.954;7.998;2023-04-25T06:17:55;8.30;99.90
15111;DHT22;7656;51.954;7.998;2023-04-25T06:22:17;8.40;99.90
15111;DHT22;7656;51.954;7.998;2023-04-25T06:26:38;8.60;99.90
15111;DHT22;7656;51.954;7.998;2023-04-25T06:31:00;8.70;99.90
15111;DHT22;7656;51.954;7.998;2023-04-25T06:35:21;8.90;99.90
15111;DHT22;7656;51.954;7.998;2023-04-25T06:39:43;8.70;99.90
15111;DHT22;7656;51.954;7.998;2023-04-25T06:44:05;8.70;99.90
15111;DHT22;7656;51.954;7.998;2023-04-25T06:48:30;8.80;99.90
15111;DHT22;7656;51.954;7.998;2023-04-25T06:52:53;9.00;99.90
15111;DHT22;7656;51.954;7.998;2023-04-25T06:57:15;9.00;99.90
15111;DHT22;7656;51.954;7.998;2023-04-25T07:01:37;9.00;99.90
15111;DHT22;7656;51.954;7.998;2023-04-25T07:06:04;9.50;99.90
15111;DHT22;7656;51.954;7.998;2023-04-25T07:10:26;9.80;99.90
15111;DHT22;7656;51.954;7.998;2023-04-25T07:14:47;9.90;99.90
15111;DHT22;7656;51.954;7.998;2023-04-25T07:19:08;10.00;99.90
15111;DHT22;7656;51.954;7.998;2023-04-25T07:23:30;9.80;99.90
15111;DHT22;7656;51.954;7.998;2023-04-25T07:27:54;9.50;99.90
15111;DHT22;7656;51.954;7.998;2023-04-25T07:32:16;9.90;99.90
15111;DHT22;7656;51.954;7.998;2023-04-25T07:36:37;10.20;99.90
15111;DHT22;7656;51.954;7.998;2023-04-25T07:40:58;10.20;99.90
15111;DHT22;7656;51.954;7.998;2023-04-25T07:45:20;10.30;99.90
15111;DHT22;7656;51.954;7.998;2023-04-25T07:49:41;10.30;99.90
15111;DHT22;7656;51.954;7.998;2023-04-25T07:54:03;10.60;99.90
15111;DHT22;7656;51.954;7.998;2023-04-25T07:58:28;11.90;99.90
15111;DHT22;7656;51.954;7.998;2023-04-25T08:02:53;13.70;99.90
15111;DHT22;7656;51.954;7.998;2023-04-25T08:07:15;15.80;99.90
15111;DHT22;7656;51.954;7.998;2023-04-25T08:11:44;16.90;99.90
15111;DHT22;7656;51.954;7.998;2023-04-25T08:16:08;16.20;99.90
15111;DHT22;7656;51.954;7.998;2023-04-25T08:20:30;15.30;99.90
15111;DHT22;7656;51.954;7.998;2023-04-25T08:24:53;15.30;99.90
15111;DHT22;7656;51.954;7.998;2023-04-25T08:29:16;15.00;99.90
15111;DHT22;7656;51.954;7.998;2023-04-25T08:33:37;13.90;99.90
15111;DHT22;7656;51.954;7.998;2023-04-25T08:38:17;12.80;99.90
15111;DHT22;7656;51.954;7.998;2023-04-25T08:42:41;12.40;99.90
15111;DHT22;7656;51.954;7.998;2023-04-25T08:47:04;12.70;99.90
15111;DHT22;7656;51.954;7.998;2023-04-25T08:51:31;15.10;99.90
15111;DHT22;7656;51.954;7.998;2023-04-25T08:55:57;16.90;99.90
15111;DHT22;7656;51.954;7.998;2023-04-25T09:00:19;17.00;99.90
15111;DHT22;7656;51.954;7.998;2023-04-25T09:04:43;15.00;99.90
15111;DHT22;7656;51.954;7.998;2023-04-25T09:09:07;14.30;99.90
15111;DHT22;7656;51.954;7.998;2023-04-25T09:13:29;14.90;99.90
15111;DHT22;7656;51.954;7.998;2023-04-25T09:18:09;17.00;99.90
15111;DHT22;7656;51.954;7.998;2023-04-25T09:26:58;21.80;94.90
15111;DHT22;7656;51.954;7.998;2023-04-25T09:31:23;21.20;94.20
15111;DHT22;7656;51.954;7.998;2023-04-25T09:35:52;18.90;95.40
15111;DHT22;7656;51.954;7.998;2023-04-25T09:40:43;16.80;98.10
15111;DHT22;7656;51.954;7.998;2023-04-25T09:45:13;15.30;98.60
15111;DHT22;7656;51.954;7.998;2023-04-25T09:49:42;14.00;99.90
15111;DHT22;7656;51.954;7.998;2023-04-25T09:54:06;13.40;99.90
15111;DHT22;7656;51.954;7.998;2023-04-25T09:58:50;13.10;99.90
15111;DHT22;7656;51.954;7.998;2023-04-25T10:03:15;12.60;99.90
15111;DHT22;7656;51.954;7.998;2023-04-25T10:07:51;12.80;99.90
15111;DHT22;7656;51.954;7.998;2023-04-25T10:12:13;12.60;99.90
15111;DHT22;7656;51.954;7.998;2023-04-25T10:16:35;12.10;99.90
15111;DHT22;7656;51.954;7.998;2023-04-25T10:21:01;12.80;99.90
15111;DHT22;7656;51.954;7.998;2023-04-25T10:25:24;13.80;99.90
15111;DHT22;7656;51.954;7.998;2023-04-25T10:29:45;14.80;99.90
15111;DHT22;7656;51.954;7.998;2023-04-25T10:34:25;15.60;99.90
15111;DHT22;7656;51.954;7.998;2023-04-25T10:39:04;16.60;99.90
15111;DHT22;7656;51.954;7.998;2023-04-25T10:43:34;17.00;99.70
15111;DHT22;7656;51.954;7.998;2023-04-25T10:48:00;16.50;98.20
15111;DHT22;7656;51.954;7.998;2023-04-25T10:52:26;16.10;97.90
15111;DHT22;7656;51.954;7.998;2023-04-25T10:56:48;15.60;97.90
15111;DHT22;7656;51.954;7.998;2023-04-25T11:01:19;14.10;99.90
15111;DHT22;7656;51.954;7.998;2023-04-25T11:05:43;13.20;99.90
15111;DHT22;7656;51.954;7.998;2023-04-25T11:10:06;12.50;99.90
15111;DHT22;7656;51.954;7.998;2023-04-25T11:14:27;12.20;99.90
15111;DHT22;7656;51.954;7.998;2023-04-25T11:18:48;11.90;99.90
15111;DHT22;7656;51.954;7.998;2023-04-25T11:23:10;11.60;99.90
15111;DHT22;7656;51.954;7.998;2023-04-25T11:27:31;12.10;99.90
15111;DHT22;7656;51.954;7.998;2023-04-25T11:31:53;12.00;99.90
15111;DHT22;7656;51.954;7.998;2023-04-25T11:36:16;11.50;99.90
15111;DHT22;7656;51.954;7.998;2023-04-25T11:40:37;12.10;99.90
15111;DHT22;7656;51.954;7.998;2023-04-25T11:44:59;12.70;99.90
15111;DHT22;7656;51.954;7.998;2023-04-25T11:49:20;13.50;99.90
15111;DHT22;7656;51.954;7.998;2023-04-25T11:53:44;13.80;99.90
15111;DHT22;7656;51.954;7.998;2023-04-25T11:58:06;13.90;99.90
15111;DHT22;7656;51.954;7.998;2023-04-25T12:02:28;13.90;99.90
15111;DHT22;7656;51.954;7.998;2023-04-25T12:06:51;13.20;99.90
15111;DHT22;7656;51.954;7.998;2023-04-25T12:11:22;12.20;99.90
15111;DHT22;7656;51.954;7.998;2023-04-25T12:15:43;12.40;99.90
15111;DHT22;7656;51.954;7.998;2023-04-25T12:20:13;13.70;99.90
15111;DHT22;7656;51.954;7.998;2023-04-25T12:24:38;14.20;99.90
15111;DHT22;7656;51.954;7.998;2023-04-25T12:28:59;14.50;99.90
15111;DHT22;7656;51.954;7.998;2023-04-25T12:33:21;14.90;99.90
15111;DHT22;7656;51.954;7.998;2023-04-25T12:37:43;14.40;99.80
15111;DHT22;7656;51.954;7.998;2023-04-25T12:42:04;14.40;99.90
15111;DHT22;7656;51.954;7.998;2023-04-25T12:46:28;15.00;99.90
15111;DHT22;7656;51.954;7.998;2023-04-25T12:50:50;15.40;98.20
15111;DHT22;7656;51.954;7.998;2023-04-25T12:55:12;15.50;98.80
15111;DHT22;7656;51.954;7.998;2023-04-25T12:59:33;15.60;99.70
15111;DHT22;7656;51.954;7.998;2023-04-25T13:03:54;16.30;99.10
15111;DHT22;7656;51.954;7.998;2023-04-25T13:08:16;16.80;98.30
15111;DHT22;7656;51.954;7.998;2023-04-25T13:12:37;17.30;99.30
15111;DHT22;7656;51.954;7.998;2023-04-25T13:16:58;17.30;98.00
15111;DHT22;7656;51.954;7.998;2023-04-25T13:21:19;16.90;99.80
15111;DHT22;7656;51.954;7.998;2023-04-25T13:25:40;15.70;99.90
15111;DHT22;7656;51.954;7.998;2023-04-25T13:30:03;15.10;99.90
15111;DHT22;7656;51.954;7.998;2023-04-25T13:34:29;14.10;99.90
15111;DHT22;7656;51.954;7.998;2023-04-25T13:38:50;13.60;99.90
15111;DHT22;7656;51.954;7.998;2023-04-25T13:43:11;13.20;99.90
15111;DHT22;7656;51.954;7.998;2023-04-25T13:47:33;12.80;99.90
15111;DHT22;7656;51.954;7.998;2023-04-25T13:51:54;12.60;99.90
15111;DHT22;7656;51.954;7.998;2023-04-25T13:56:16;12.80;99.90
15111;DHT22;7656;51.954;7.998;2023-04-25T14:00:37;12.40;99.90
15111;DHT22;7656;51.954;7.998;2023-04-25T14:04:59;11.30;99.90
15111;DHT22;7656;51.954;7.998;2023-04-25T14:09:20;11.20;99.90
15111;DHT22;7656;51.954;7.998;2023-04-25T14:13:46;10.90;99.90
15111;DHT22;7656;51.954;7.998;2023-04-25T14:18:08;10.40;99.90
15111;DHT22;7656;51.954;7.998;2023-04-25T14:22:29;9.90;99.90
15111;DHT22;7656;51.954;7.998;2023-04-25T14:26:50;10.30;99.90
15111;DHT22;7656;51.954;7.998;2023-04-25T14:31:12;10.80;99.90
15111;DHT22;7656;51.954;7.998;2023-04-25T14:35:33;11.60;99.90
15111;DHT22;7656;51.954;7.998;2023-04-25T14:39:54;11.70;99.90
15111;DHT22;7656;51.954;7.998;2023-04-25T14:44:15;12.60;99.90
15111;DHT22;7656;51.954;7.998;2023-04-25T14:48:36;13.40;99.90
15111;DHT22;7656;51.954;7.998;2023-04-25T14:52:57;14.10;99.90
15111;DHT22;7656;51.954;7.998;2023-04-25T14:57:21;14.00;99.90
15111;DHT22;7656;51.954;7.998;2023-04-25T15:01:42;13.80;99.90
15111;DHT22;7656;51.954;7.998;2023-04-25T15:06:03;13.60;99.90
15111;DHT22;7656;51.954;7.998;2023-04-25T15:10:24;13.90;99.90
15111;DHT22;7656;51.954;7.998;2023-04-25T15:14:45;14.30;99.90
15111;DHT22;7656;51.954;7.998;2023-04-25T15:19:06;13.70;99.90
15111;DHT22;7656;51.954;7.998;2023-04-25T15:23:28;13.10;99.90
15111;DHT22;7656;51.954;7.998;2023-04-25T15:27:49;11.80;99.90
15111;DHT22;7656;51.954;7.998;2023-04-25T15:32:12;11.30;99.90
15111;DHT22;7656;51.954;7.998;2023-04-25T15:36:33;10.80;99.90
15111;DHT22;7656;51.954;7.998;2023-04-25T15:40:54;10.60;99.90
15111;DHT22;7656;51.954;7.998;2023-04-25T15:45:16;10.70;99.90
15111;DHT22;7656;51.954;7.998;2023-04-25T15:49:37;10.90;99.90
15111;DHT22;7656;51.954;7.998;2023-04-25T15:53:58;11.00;99.90
15111;DHT22;7656;51.954;7.998;2023-04-25T15:58:21;11.70;99.90
15111;DHT22;7656;51.954;7.998;2023-04-25T16:02:43;12.20;99.90
15111;DHT22;7656;51.954;7.998;2023-04-25T16:07:05;12.10;99.90
15111;DHT22;7656;51.954;7.998;2023-04-25T16:11:27;12.20;99.90
15111;DHT22;7656;51.954;7.998;2023-04-25T16:15:49;12.20;99.90
15111;DHT22;7656;51.954;7.998;2023-04-25T16:20:11;11.70;99.90
15111;DHT22;7656;51.954;7.998;2023-04-25T16:24:33;11.40;99.90
15111;DHT22;7656;51.954;7.998;2023-04-25T16:28:54;11.50;99.90
15111;DHT22;7656;51.954;7.998;2023-04-25T16:33:15;11.30;99.90
15111;DHT22;7656;51.954;7.998;2023-04-25T16:37:36;11.10;99.90
15111;DHT22;7656;51.954;7.998;2023-04-25T16:41:57;10.90;99.90
15111;DHT22;7656;51.954;7.998;2023-04-25T16:46:18;10.70;99.90
15111;DHT22;7656;51.954;7.998;2023-04-25T16:50:39;10.50;99.90
15111;DHT22;7656;51.954;7.998;2023-04-25T16:55:01;10.40;99.90
15111;DHT22;7656;51.954;7.998;2023-04-25T16:59:22;10.20;99.90
15111;DHT22;7656;51.954;7.998;2023-04-25T17:03:43;10.40;99.90
15111;DHT22;7656;51.954;7.998;2023-04-25T17:08:04;10.00;99.90
15111;DHT22;7656;51.954;7.998;2023-04-25T17:12:25;9.60;99.90
15111;DHT22;7656;51.954;7.998;2023-04-25T17:16:46;9.40;99.90
15111;DHT22;7656;51.954;7.998;2023-04-25T17:21:08;9.20;99.90
15111;DHT22;7656;51.954;7.998;2023-04-25T17:25:29;9.10;99.90
15111;DHT22;7656;51.954;7.998;2023-04-25T17:29:51;9.00;99.90
15111;DHT22;7656;51.954;7.998;2023-04-25T17:34:12;9.10;99.90
15111;DHT22;7656;51.954;7.998;2023-04-25T17:38:37;9.10;99.90
15111;DHT22;7656;51.954;7.998;2023-04-25T17:42:59;9.20;99.90
15111;DHT22;7656;51.954;7.998;2023-04-25T17:47:20;9.20;99.90
15111;DHT22;7656;51.954;7.998;2023-04-25T17:51:42;9.20;99.90
15111;DHT22;7656;51.954;7.998;2023-04-25T17:56:03;8.90;99.90
15111;DHT22;7656;51.954;7.998;2023-04-25T18:00:24;8.50;99.90
15111;DHT22;7656;51.954;7.998;2023-04-25T18:04:46;8.40;99.90
15111;DHT22;7656;51.954;7.998;2023-04-25T18:09:07;8.30;99.90
15111;DHT22;7656;51.954;7.998;2023-04-25T18:13:38;8.40;99.90
15111;DHT22;7656;51.954;7.998;2023-04-25T18:17:59;8.70;99.90
15111;DHT22;7656;51.954;7.998;2023-04-25T18:22:22;8.70;99.90
15111;DHT22;7656;51.954;7.998;2023-04-25T18:26:44;8.80;99.90
15111;DHT22;7656;51.954;7.998;2023-04-25T18:31:06;8.60;99.90
15111;DHT22;7656;51.954;7.998;2023-04-25T18:35:29;8.40;99.90
15111;DHT22;7656;51.954;7.998;2023-04-25T18:39:50;8.40;99.90
15111;DHT22;7656;51.954;7.998;2023-04-25T18:44:11;8.20;99.90
15111;DHT22;7656;51.954;7.998;2023-04-25T18:48:32;8.10;99.90
15111;DHT22;7656;51.954;7.998;2023-04-25T18:52:53;8.10;99.90
15111;DHT22;7656;51.954;7.998;2023-04-25T18:57:14;8.20;99.90
15111;DHT22;7656;51.954;7.998;2023-04-25T19:01:37;8.30;99.90
15111;DHT22;7656;51.954;7.998;2023-04-25T19:05:59;8.40;99.90
15111;DHT22;7656;51.954;7.998;2023-04-25T19:10:20;8.40;99.90
15111;DHT22;7656;51.954;7.998;2023-04-25T19:14:41;8.40;99.90
15111;DHT22;7656;51.954;7.998;2023-04-25T19:19:03;8.30;99.90
15111;DHT22;7656;51.954;7.998;2023-04-25T19:23:25;8.30;99.90
15111;DHT22;7656;51.954;7.998;2023-04-25T19:27:46;8.10;99.90
15111;DHT22;7656;51.954;7.998;2023-04-25T19:32:09;8.10;99.90
15111;DHT22;7656;51.954;7.998;2023-04-25T19:36:31;8.10;99.90
15111;DHT22;7656;51.954;7.998;2023-04-25T19:40:52;8.10;99.90
15111;DHT22;7656;51.954;7.998;2023-04-25T19:45:13;8.30;99.90
15111;DHT22;7656;51.954;7.998;2023-04-25T19:49:34;8.30;99.90
15111;DHT22;7656;51.954;7.998;2023-04-25T19:53:56;8.40;99.90
15111;DHT22;7656;51.954;7.998;2023-04-25T19:58:17;8.40;99.90
15111;DHT22;7656;51.954;7.998;2023-04-25T20:02:38;8.40;99.90
15111;DHT22;7656;51.954;7.998;2023-04-25T20:07:00;8.40;99.90
15111;DHT22;7656;51.954;7.998;2023-04-25T20:11:21;8.40;99.90
15111;DHT22;7656;51.954;7.998;2023-04-25T20:15:42;8.30;99.90
15111;DHT22;7656;51.954;7.998;2023-04-25T20:20:04;8.30;99.90
15111;DHT22;7656;51.954;7.998;2023-04-25T20:24:26;8.20;99.90
15111;DHT22;7656;51.954;7.998;2023-04-25T20:28:47;8.20;99.90
15111;DHT22;7656;51.954;7.998;2023-04-25T20:33:08;8.20;99.90
15111;DHT22;7656;51.954;7.998;2023-04-25T20:37:29;8.00;99.90
15111;DHT22;7656;51.954;7.998;2023-04-25T20:41:54;8.00;99.90
15111;DHT22;7656;51.954;7.998;2023-04-25T20:46:16;8.00;99.90
15111;DHT22;7656;51.954;7.998;2023-04-25T20:50:37;8.00;99.90
15111;DHT22;7656;51.954;7.998;2023-04-25T20:54:59;7.90;99.90
15111;DHT22;7656;51.954;7.998;2023-04-25T20:59:20;7.80;99.90
15111;DHT22;7656;51.954;7.998;2023-04-25T21:03:41;7.80;99.90
15111;DHT22;7656;51.954;7.998;2023-04-25T21:08:02;7.70;99.90
15111;DHT22;7656;51.954;7.998;2023-04-25T21:12:24;7.60;99.90
15111;DHT22;7656;51.954;7.998;2023-04-25T21:16:46;7.50;99.90
15111;DHT22;7656;51.954;7.998;2023-04-25T21:21:07;7.50;99.90
15111;DHT22;7656;51.954;7.998;2023-04-25T21:25:28;7.40;99.90
15111;DHT22;7656;51.954;7.998;2023-04-25T21:29:51;7.40;99.90
15111;DHT22;7656;51.954;7.998;2023-04-25T21:34:12;7.30;99.90
15111;DHT22;7656;51.954;7.998;2023-04-25T21:38:33;7.20;99.90
15111;DHT22;7656;51.954;7.998;2023-04-25T21:42:55;7.20;99.90
15111;DHT22;7656;51.954;7.998;2023-04-25T21:47:16;7.10;99.90
15111;DHT22;7656;51.954;7.998;2023-04-25T21:51:37;7.10;99.90
15111;DHT22;7656;51.954;7.998;2023-04-25T21:55:58;6.90;99.90
15111;DHT22;7656;51.954;7.998;2023-04-25T22:00:20;6.80;99.90
15111;DHT22;7656;51.954;7.998;2023-04-25T22:04:44;6.80;99.90
15111;DHT22;7656;51.954;7.998;2023-04-25T22:09:07;6.70;99.90
15111;DHT22;7656;51.954;7.998;2023-04-25T22:13:28;6.70;99.90
15111;DHT22;7656;51.954;7.998;2023-04-25T22:17:50;6.70;99.90
15111;DHT22;7656;51.954;7.998;2023-04-25T22:22:12;6.60;99.90
15111;DHT22;7656;51.954;7.998;2023-04-25T22:26:33;6.60;99.90
15111;DHT22;7656;51.954;7.998;2023-04-25T22:30:54;6.60;99.90
15111;DHT22;7656;51.954;7.998;2023-04-25T22:35:15;6.50;99.90
15111;DHT22;7656;51.954;7.998;2023-04-25T22:39:37;6.50;99.90
15111;DHT22;7656;51.954;7.998;2023-04-25T22:43:58;6.50;99.90
15111;DHT22;7656;51.954;7.998;2023-04-25T22:48:19;6.40;99.90
15111;DHT22;7656;51.954;7.998;2023-04-25T22:52:41;6.40;99.90
15111;DHT22;7656;51.954;7.998;2023-04-25T22:57:05;6.30;99.90
15111;DHT22;7656;51.954;7.998;2023-04-25T23:01:27;6.30;99.90
15111;DHT22;7656;51.954;7.998;2023-04-25T23:05:49;6.20;99.90
15111;DHT22;7656;51.954;7.998;2023-04-25T23:10:10;6.20;99.90
15111;DHT22;7656;51.954;7.998;2023-04-25T23:14:32;6.10;99.90
15111;DHT22;7656;51.954;7.998;2023-04-25T23:18:54;6.10;99.90
15111;DHT22;7656;51.954;7.998;2023-04-25T23:23:15;6.00;99.90
15111;DHT22;7656;51.954;7.998;2023-04-25T23:27:36;6.00;99.90
15111;DHT22;7656;51.954;7.998;2023-04-25T23:31:57;5.90;99.90
15111;DHT22;7656;51.954;7.998;2023-04-25T23:36:19;5.90;99.90
15111;DHT22;7656;51.954;7.998;2023-04-25T23:40:41;5.80;99.90
15111;DHT22;7656;51.954;7.998;2023-04-25T23:45:03;5.80;99.90
15111;DHT22;7656;51.954;7.998;2023-04-25T23:49:28;5.80;99.90
15111;DHT22;7656;51.954;7.998;2023-04-25T23:53:49;5.70;99.90
15111;DHT22;7656;51.954;7.998;2023-04-25T23:58:10;5.70;99.90
